Time;durP1;ratioP1;P1;durP2;ratioP2;P2;SDS_P1;SDS_P2;PMS_P1;PMS_P2;Temp;Humidity;BMP_temperature;BMP_pressure;BME280_temperature;BME280_humidity;BME280_pressure;Samples;Min_cycle;Max_cycle;Signal;HPM_P1;HPM_P2
2021/05/14 00:01:23;;;;;;;12.90;11.60;;;12.80;99.90;;;;;;5095817;28;20636;-71
2021/05/14 00:03:48;;;;;;;13.20;11.87;;;12.80;99.90;;;;;;5095723;28;20171;-71
2021/05/14 00:06:14;;;;;;;12.63;11.43;;;12.80;99.90;;;;;;5095481;28;20184;-71
2021/05/14 00:08:40;;;;;;;14.33;12.80;;;12.80;99.90;;;;;;5094530;28;20182;-71
2021/05/14 00:11:06;;;;;;;14.23;12.73;;;12.80;99.90;;;;;;5095950;28;20447;-71
2021/05/14 00:13:31;;;;;;;13.23;11.83;;;12.80;99.90;;;;;;5095350;28;20608;-71
2021/05/14 00:15:57;;;;;;;13.93;12.40;;;12.80;99.90;;;;;;5082286;28;20245;-71
2021/05/14 00:18:24;;;;;;;13.97;12.50;;;12.80;99.90;;;;;;5075134;28;20159;-71
2021/05/14 00:20:49;;;;;;;13.77;12.23;;;12.90;99.90;;;;;;5075201;28;20247;-71
2021/05/14 00:23:15;;;;;;;12.97;11.70;;;12.80;99.90;;;;;;5074897;28;20457;-71
2021/05/14 00:25:41;;;;;;;13.40;12.20;;;12.90;99.90;;;;;;5075813;28;20921;-71
2021/05/14 00:28:06;;;;;;;13.80;12.43;;;12.90;99.90;;;;;;5074817;28;20265;-71
2021/05/14 00:30:32;;;;;;;15.47;14.07;;;12.90;99.90;;;;;;5074665;28;20207;-71
2021/05/14 00:32:58;;;;;;;15.20;12.57;;;12.90;99.90;;;;;;5074739;28;20164;-71
2021/05/14 00:35:23;;;;;;;14.30;11.90;;;12.80;99.90;;;;;;5074946;28;20595;-71
2021/05/14 00:37:49;;;;;;;13.17;11.70;;;12.80;99.90;;;;;;5074569;28;20156;-71
2021/05/14 00:40:15;;;;;;;15.20;13.70;;;12.80;99.90;;;;;;5075124;28;20167;-71
2021/05/14 00:42:40;;;;;;;16.23;13.47;;;12.80;99.90;;;;;;5075140;28;20211;-71
2021/05/14 00:45:07;;;;;;;15.50;13.30;;;12.80;99.90;;;;;;5074501;28;20455;-71
2021/05/14 00:47:33;;;;;;;14.43;12.40;;;12.70;99.90;;;;;;5074493;28;20167;-71
2021/05/14 00:49:59;;;;;;;13.60;12.30;;;12.80;99.90;;;;;;5074379;28;20438;-71
2021/05/14 00:52:24;;;;;;;14.90;13.50;;;12.70;99.90;;;;;;5073520;28;20159;-71
2021/05/14 00:54:52;;;;;;;13.17;11.77;;;12.80;99.90;;;;;;5075013;28;20174;-71
2021/05/14 00:57:17;;;;;;;14.27;12.77;;;12.80;99.90;;;;;;5074356;28;20595;-70
2021/05/14 00:59:45;;;;;;;14.40;12.90;;;12.80;99.90;;;;;;5074472;28;20524;-71
2021/05/14 01:02:11;;;;;;;14.17;12.77;;;12.70;99.90;;;;;;5074067;28;20261;-71
2021/05/14 01:04:38;;;;;;;14.43;12.93;;;12.70;99.90;;;;;;5074324;28;20882;-71
2021/05/14 01:07:04;;;;;;;13.37;11.97;;;12.70;99.90;;;;;;5073903;28;20409;-71
2021/05/14 01:09:31;;;;;;;15.70;13.40;;;12.60;99.90;;;;;;5074463;28;20449;-71
2021/05/14 01:11:57;;;;;;;15.27;13.73;;;12.60;99.90;;;;;;5074031;28;20390;-71
2021/05/14 01:14:22;;;;;;;12.43;11.20;;;12.50;99.90;;;;;;5073940;28;20909;-71
2021/05/14 01:16:48;;;;;;;21.00;13.47;;;12.40;99.90;;;;;;5092641;28;20243;-71
2021/05/14 01:19:14;;;;;;;14.50;12.90;;;12.40;99.90;;;;;;5094096;28;20158;-71
2021/05/14 01:21:40;;;;;;;14.20;12.80;;;12.30;99.90;;;;;;5094066;28;20173;-71
2021/05/14 01:24:06;;;;;;;13.43;12.03;;;12.30;99.90;;;;;;5094446;28;20178;-71
2021/05/14 01:26:32;;;;;;;12.10;10.93;;;12.20;99.90;;;;;;5093993;28;20408;-71
2021/05/14 01:28:59;;;;;;;13.47;11.57;;;12.10;99.90;;;;;;5093811;28;20456;-71
2021/05/14 01:31:25;;;;;;;11.17;10.20;;;12.10;99.90;;;;;;5094130;28;20178;-71
2021/05/14 01:33:51;;;;;;;13.97;12.43;;;12.00;99.90;;;;;;5092958;28;20414;-71
2021/05/14 01:36:18;;;;;;;14.17;12.83;;;12.00;99.90;;;;;;5093792;28;20165;-71
2021/05/14 01:38:44;;;;;;;11.67;10.50;;;12.00;99.90;;;;;;5093999;28;20414;-70
2021/05/14 01:41:10;;;;;;;13.37;12.10;;;11.90;99.90;;;;;;5093671;28;20407;-71
2021/05/14 01:43:36;;;;;;;14.57;13.10;;;11.90;99.90;;;;;;5093677;28;20862;-71
2021/05/14 01:46:04;;;;;;;13.83;12.20;;;11.80;99.90;;;;;;5093612;28;20238;-70
2021/05/14 01:48:30;;;;;;;14.53;13.07;;;11.80;99.90;;;;;;5093037;28;20385;-71
2021/05/14 01:51:04;;;;;;;14.20;12.70;;;11.80;99.90;;;;;;5093150;28;20455;-71
2021/05/14 01:53:29;;;;;;;14.63;12.50;;;11.70;99.90;;;;;;5093807;28;20468;-71
2021/05/14 01:55:56;;;;;;;16.17;13.63;;;11.70;99.90;;;;;;5093387;28;20896;-71
2021/05/14 01:58:22;;;;;;;15.20;13.67;;;11.60;99.90;;;;;;5093244;28;20157;-71
2021/05/14 02:00:47;;;;;;;15.50;13.23;;;11.60;99.90;;;;;;5093276;28;20427;-71
2021/05/14 02:03:13;;;;;;;16.30;14.60;;;11.60;99.90;;;;;;5093289;28;20658;-70
2021/05/14 02:05:38;;;;;;;16.17;14.57;;;11.60;99.90;;;;;;5092492;28;20551;-70
2021/05/14 02:08:04;;;;;;;15.43;13.10;;;11.60;99.90;;;;;;5093944;28;20637;-71
2021/05/14 02:10:30;;;;;;;15.47;13.90;;;11.50;99.90;;;;;;5093635;28;20209;-67
2021/05/14 02:12:55;;;;;;;16.17;14.60;;;11.50;99.90;;;;;;5093179;28;20211;-67
2021/05/14 02:15:21;;;;;;;17.23;15.73;;;11.50;99.90;;;;;;5085360;28;20175;-67
2021/05/14 02:17:46;;;;;;;17.40;15.70;;;11.50;99.90;;;;;;5072933;28;20648;-67
2021/05/14 02:20:12;;;;;;;17.80;15.40;;;11.50;99.90;;;;;;5072931;28;20251;-67
2021/05/14 02:22:38;;;;;;;17.97;16.17;;;11.50;99.90;;;;;;5073866;28;20162;-67
2021/05/14 02:25:06;;;;;;;17.73;15.77;;;11.40;99.90;;;;;;5073051;28;20883;-67
2021/05/14 02:27:33;;;;;;;17.60;16.00;;;11.40;99.90;;;;;;5072836;28;20397;-67
2021/05/14 02:29:59;;;;;;;17.60;15.70;;;11.40;99.90;;;;;;5072595;28;20555;-67
2021/05/14 02:32:24;;;;;;;17.23;15.50;;;11.40;99.90;;;;;;5072847;28;20389;-67
2021/05/14 02:34:50;;;;;;;16.50;14.80;;;11.40;99.90;;;;;;5072868;28;20408;-67
2021/05/14 02:37:15;;;;;;;17.33;15.50;;;11.40;99.90;;;;;;5073144;28;20154;-67
2021/05/14 02:39:41;;;;;;;16.50;15.00;;;11.40;99.90;;;;;;5073741;28;20156;-67
2021/05/14 02:42:08;;;;;;;17.87;15.97;;;11.30;99.90;;;;;;5072645;28;20232;-67
2021/05/14 02:44:34;;;;;;;16.03;14.40;;;11.30;99.90;;;;;;5072695;28;20162;-67
2021/05/14 02:47:00;;;;;;;15.67;14.17;;;11.30;99.90;;;;;;5072619;28;20435;-67
2021/05/14 02:49:26;;;;;;;15.87;14.17;;;11.30;99.90;;;;;;5072550;28;20477;-67
2021/05/14 02:51:51;;;;;;;16.47;14.77;;;11.30;99.90;;;;;;5072756;28;20151;-67
2021/05/14 02:54:17;;;;;;;16.00;14.40;;;11.20;99.90;;;;;;5072606;28;20250;-67
2021/05/14 02:56:42;;;;;;;16.40;14.83;;;11.20;99.90;;;;;;5073018;28;20158;-67
2021/05/14 02:59:08;;;;;;;16.97;15.27;;;11.20;99.90;;;;;;5072476;28;20651;-67
2021/05/14 03:01:33;;;;;;;15.97;14.40;;;11.20;99.90;;;;;;5072753;28;20704;-67
2021/05/14 03:03:59;;;;;;;15.27;13.77;;;11.20;99.90;;;;;;5072625;28;20203;-67
2021/05/14 03:06:24;;;;;;;16.10;14.37;;;11.20;99.90;;;;;;5072508;28;20161;-67
2021/05/14 03:08:50;;;;;;;14.97;13.60;;;11.20;99.90;;;;;;5072182;28;20174;-67
2021/05/14 03:11:15;;;;;;;15.93;14.53;;;11.20;99.90;;;;;;5072636;28;20182;-67
2021/05/14 03:13:41;;;;;;;18.33;14.67;;;11.20;99.90;;;;;;5072823;28;20181;-67
2021/05/14 03:16:07;;;;;;;14.70;13.30;;;11.20;99.90;;;;;;5073459;28;20648;-67
2021/05/14 03:18:33;;;;;;;14.83;13.30;;;11.20;99.90;;;;;;5076296;28;20157;-67
2021/05/14 03:20:59;;;;;;;14.27;12.87;;;11.20;99.90;;;;;;5076430;28;20388;-67
2021/05/14 03:23:26;;;;;;;14.67;13.17;;;11.20;99.90;;;;;;5076098;28;20632;-67
2021/05/14 03:25:51;;;;;;;13.97;12.67;;;11.20;99.90;;;;;;5075915;28;20389;-67
2021/05/14 03:28:17;;;;;;;14.37;12.90;;;11.20;99.90;;;;;;5075838;28;20400;-67
2021/05/14 03:30:43;;;;;;;13.83;12.53;;;11.10;99.90;;;;;;5076208;28;20196;-67
2021/05/14 03:33:09;;;;;;;15.13;12.70;;;11.10;99.90;;;;;;5076822;28;20490;-67
2021/05/14 03:35:35;;;;;;;15.77;13.73;;;11.10;99.90;;;;;;5075986;28;20822;-67
2021/05/14 03:38:00;;;;;;;14.00;12.70;;;11.10;99.90;;;;;;5075818;28;20161;-67
2021/05/14 03:43:05;;;;;;;14.00;12.70;;;11.10;99.90;;;;;;5110876;27;20506;-67
2021/05/14 03:45:31;;;;;;;15.63;12.37;;;11.10;99.90;;;;;;5110746;28;20867;-67
2021/05/14 03:47:57;;;;;;;16.17;13.20;;;11.00;99.90;;;;;;5107197;28;20185;-67
2021/05/14 03:50:26;;;;;;;13.67;12.43;;;11.00;99.90;;;;;;5090674;28;20380;-68
2021/05/14 03:52:51;;;;;;;14.30;12.80;;;11.00;99.90;;;;;;5090224;28;20176;-67
2021/05/14 03:55:19;;;;;;;14.80;12.80;;;11.00;99.90;;;;;;5090327;28;20487;-67
2021/05/14 03:57:45;;;;;;;13.77;12.10;;;11.10;99.90;;;;;;5090296;28;20157;-67
2021/05/14 04:00:11;;;;;;;15.10;13.60;;;11.10;99.90;;;;;;5090238;28;20769;-67
2021/05/14 04:02:37;;;;;;;13.27;11.97;;;11.10;99.90;;;;;;5090140;28;20178;-67
2021/05/14 04:05:03;;;;;;;14.30;12.80;;;11.10;99.90;;;;;;5091512;28;20945;-67
2021/05/14 04:07:29;;;;;;;13.87;12.47;;;11.10;99.90;;;;;;5090063;28;20627;-67
2021/05/14 04:10:07;;;;;;;15.77;14.17;;;11.10;99.90;;;;;;5089958;28;20473;-67
2021/05/14 04:15:16;;;;;;;13.30;11.80;;;11.20;99.90;;;;;;5110855;27;20860;-69
2021/05/14 04:17:42;;;;;;;14.10;12.30;;;11.20;99.90;;;;;;5110738;28;20399;-69
2021/05/14 04:20:07;;;;;;;11.57;10.47;;;11.20;99.90;;;;;;5111472;28;20154;-69
2021/05/14 04:22:33;;;;;;;12.13;11.03;;;11.30;99.90;;;;;;5100700;28;20205;-69
2021/05/14 04:24:59;;;;;;;12.50;11.30;;;11.30;99.90;;;;;;5090461;28;20174;-69
2021/05/14 04:27:24;;;;;;;14.00;11.67;;;11.40;99.90;;;;;;5090284;28;20403;-69
2021/05/14 04:29:50;;;;;;;12.13;11.03;;;11.40;99.90;;;;;;5090219;28;20191;-69
2021/05/14 04:32:16;;;;;;;12.07;10.97;;;11.40;99.90;;;;;;5090302;28;20263;-69
2021/05/14 04:34:42;;;;;;;12.30;11.20;;;11.40;99.90;;;;;;5090797;28;20733;-69
2021/05/14 04:37:08;;;;;;;11.37;10.27;;;11.40;99.90;;;;;;5090175;28;20155;-69
2021/05/14 04:39:34;;;;;;;11.40;10.07;;;11.40;99.90;;;;;;5089080;28;20174;-69
2021/05/14 04:41:59;;;;;;;11.10;10.03;;;11.50;99.90;;;;;;5089990;28;20395;-69
2021/05/14 04:44:25;;;;;;;11.80;10.70;;;11.50;99.90;;;;;;5090036;28;20904;-69
2021/05/14 04:46:52;;;;;;;10.50;9.60;;;11.50;99.90;;;;;;5089993;28;20188;-69
2021/05/14 04:49:18;;;;;;;11.67;10.47;;;11.50;99.90;;;;;;5090677;28;20161;-69
2021/05/14 04:51:43;;;;;;;12.40;10.13;;;11.50;99.90;;;;;;5089918;28;20386;-69
2021/05/14 04:54:09;;;;;;;11.20;10.07;;;11.60;99.90;;;;;;5089704;28;20194;-69
2021/05/14 04:56:34;;;;;;;14.33;9.97;;;11.60;99.90;;;;;;5088999;28;20171;-69
2021/05/14 04:59:02;;;;;;;11.20;10.00;;;11.70;99.90;;;;;;5089758;28;20276;-69
2021/05/14 05:01:28;;;;;;;10.30;9.40;;;11.80;99.90;;;;;;5089844;28;20158;-69
2021/05/14 05:03:55;;;;;;;10.20;9.27;;;11.80;99.90;;;;;;5090362;28;20874;-69
2021/05/14 05:06:23;;;;;;;10.00;8.97;;;11.80;99.90;;;;;;5089673;28;20204;-69
2021/05/14 05:08:50;;;;;;;9.53;8.43;;;11.90;99.90;;;;;;5089609;28;20450;-69
2021/05/14 05:11:16;;;;;;;9.27;8.47;;;12.00;99.90;;;;;;5089491;28;20398;-69
2021/05/14 05:13:41;;;;;;;9.00;8.13;;;12.00;99.90;;;;;;5081046;28;20815;-69
2021/05/14 05:16:09;;;;;;;8.40;7.60;;;12.20;99.90;;;;;;5089916;28;20647;-69
2021/05/14 05:18:36;;;;;;;9.60;8.60;;;12.20;99.90;;;;;;5090015;28;20178;-69
2021/05/14 05:21:02;;;;;;;10.27;9.37;;;12.30;99.90;;;;;;5089317;28;20378;-69
2021/05/14 05:23:28;;;;;;;9.03;8.13;;;12.40;99.90;;;;;;5089315;28;20390;-69
2021/05/14 05:25:53;;;;;;;8.67;7.90;;;12.40;99.90;;;;;;5080073;28;20636;-69
2021/05/14 05:28:22;;;;;;;10.37;8.80;;;12.50;99.90;;;;;;5075788;28;20167;-69
2021/05/14 05:30:48;;;;;;;11.13;8.83;;;12.50;99.90;;;;;;5075163;28;20186;-69
2021/05/14 05:33:13;;;;;;;11.20;8.27;;;12.50;99.90;;;;;;5075835;28;20860;-69
2021/05/14 05:35:39;;;;;;;8.70;7.80;;;12.60;99.90;;;;;;5075425;28;20402;-69
2021/05/14 05:38:14;;;;;;;13.43;8.63;;;12.70;99.90;;;;;;5075475;28;20202;-69
2021/05/14 05:40:40;;;;;;;10.00;8.50;;;12.80;99.90;;;;;;5075510;28;20644;-69
2021/05/14 05:43:05;;;;;;;9.20;8.30;;;12.90;99.90;;;;;;5075426;28;20386;-69
2021/05/14 05:45:31;;;;;;;10.00;8.93;;;13.00;99.90;;;;;;5075425;28;20213;-69
2021/05/14 05:47:56;;;;;;;10.50;9.50;;;13.10;99.90;;;;;;5074728;28;20559;-69
2021/05/14 05:50:22;;;;;;;9.30;8.47;;;13.20;99.90;;;;;;5075136;28;20609;-69
2021/05/14 05:52:48;;;;;;;8.93;8.10;;;13.30;99.90;;;;;;5075087;28;20197;-69
2021/05/14 05:55:13;;;;;;;10.10;9.10;;;13.40;99.90;;;;;;5075112;28;20213;-69
2021/05/14 05:57:39;;;;;;;8.67;7.80;;;13.40;99.90;;;;;;5075247;28;20218;-69
2021/05/14 06:00:05;;;;;;;10.00;7.90;;;13.50;99.90;;;;;;5075550;28;20202;-69
2021/05/14 06:02:31;;;;;;;8.07;7.27;;;13.50;99.90;;;;;;5075271;28;20623;-69
2021/05/14 06:04:56;;;;;;;12.00;8.03;;;13.70;99.90;;;;;;5074210;28;20409;-69
2021/05/14 06:07:22;;;;;;;7.30;6.60;;;13.80;99.90;;;;;;5075045;28;20160;-69
2021/05/14 06:09:47;;;;;;;7.93;7.23;;;13.80;99.90;;;;;;5075094;28;20234;-69
2021/05/14 06:12:13;;;;;;;9.83;8.30;;;13.90;99.90;;;;;;5074721;28;20198;-69
2021/05/14 06:14:38;;;;;;;7.30;6.70;;;14.00;99.90;;;;;;5074740;28;20210;-69
2021/05/14 06:17:11;;;;;;;7.60;6.90;;;14.10;99.90;;;;;;5074960;28;20235;-69
2021/05/14 06:19:43;;;;;;;8.13;7.30;;;14.20;99.90;;;;;;5074744;28;20522;-69
2021/05/14 06:22:09;;;;;;;8.53;7.73;;;14.30;99.90;;;;;;5061244;28;20751;-69
2021/05/14 06:24:34;;;;;;;8.03;7.23;;;14.40;99.90;;;;;;5054580;28;20402;-69
2021/05/14 06:27:00;;;;;;;8.80;8.00;;;14.50;99.90;;;;;;5054522;28;20200;-69
2021/05/14 06:29:26;;;;;;;7.87;7.07;;;14.50;99.90;;;;;;5054817;28;20168;-69
2021/05/14 06:31:51;;;;;;;7.23;6.63;;;14.60;99.90;;;;;;5054492;28;20307;-69
2021/05/14 06:34:17;;;;;;;7.37;6.67;;;14.80;99.90;;;;;;5054484;28;20235;-69
2021/05/14 06:36:42;;;;;;;8.50;7.70;;;14.80;99.90;;;;;;5053709;28;20177;-69
2021/05/14 06:39:08;;;;;;;7.70;7.03;;;14.90;99.90;;;;;;5054874;28;20164;-69
2021/05/14 06:41:33;;;;;;;7.67;6.90;;;15.00;99.90;;;;;;5054269;28;20181;-69
2021/05/14 06:43:59;;;;;;;7.77;6.97;;;15.10;99.90;;;;;;5054766;28;20169;-69
2021/05/14 06:46:24;;;;;;;6.47;5.87;;;15.20;99.90;;;;;;5054314;28;20161;-69
2021/05/14 06:48:50;;;;;;;8.37;7.57;;;15.30;99.90;;;;;;5054271;28;20168;-69
2021/05/14 06:51:16;;;;;;;8.63;7.80;;;15.40;99.90;;;;;;5054212;28;20242;-69
2021/05/14 06:53:42;;;;;;;7.93;7.23;;;15.50;99.90;;;;;;5054014;28;20540;-69
2021/05/14 06:56:07;;;;;;;7.97;6.90;;;15.50;99.90;;;;;;5054716;28;20175;-69
2021/05/14 06:58:33;;;;;;;8.00;7.20;;;15.70;99.90;;;;;;5054248;28;20182;-69
2021/05/14 07:00:59;;;;;;;6.63;5.97;;;15.80;99.90;;;;;;5054093;28;20534;-69
2021/05/14 07:03:24;;;;;;;7.30;6.57;;;15.90;99.90;;;;;;5053990;28;20166;-69
2021/05/14 07:05:50;;;;;;;7.20;6.50;;;16.10;99.90;;;;;;5053934;28;20231;-69
2021/05/14 07:08:15;;;;;;;6.50;5.70;;;16.10;99.90;;;;;;5054148;28;20156;-69
2021/05/14 07:10:41;;;;;;;5.63;5.13;;;16.20;99.90;;;;;;5053671;28;20159;-69
2021/05/14 07:13:06;;;;;;;6.10;5.50;;;16.30;99.90;;;;;;5067958;28;20513;-69
2021/05/14 07:15:32;;;;;;;6.10;5.53;;;16.40;99.90;;;;;;5073876;28;20170;-69
2021/05/14 07:18:00;;;;;;;7.23;5.73;;;16.50;99.90;;;;;;5073813;28;20151;-69
2021/05/14 07:20:27;;;;;;;6.13;5.40;;;16.60;99.90;;;;;;5073610;28;20194;-69
2021/05/14 07:22:53;;;;;;;6.63;5.67;;;16.70;99.90;;;;;;5073583;28;20413;-67
2021/05/14 07:25:19;;;;;;;7.10;5.13;;;16.80;99.90;;;;;;5073317;28;20406;-67
2021/05/14 07:27:45;;;;;;;5.60;5.10;;;16.90;99.90;;;;;;5074268;28;20390;-67
2021/05/14 07:30:12;;;;;;;6.90;5.80;;;17.10;99.90;;;;;;5072658;28;20179;-67
2021/05/14 07:32:39;;;;;;;6.10;5.47;;;17.30;99.90;;;;;;5073772;28;20402;-69
2021/05/14 07:35:06;;;;;;;5.80;5.30;;;17.40;99.90;;;;;;5073388;28;20437;-69
2021/05/14 07:37:31;;;;;;;7.23;4.97;;;17.60;99.90;;;;;;5073488;28;20402;-69
2021/05/14 07:39:57;;;;;;;7.20;4.40;;;17.80;99.90;;;;;;5073269;28;20386;-69
2021/05/14 07:42:23;;;;;;;4.10;3.70;;;18.00;99.90;;;;;;5073869;28;20190;-69
2021/05/14 07:44:48;;;;;;;5.50;3.87;;;18.20;99.90;;;;;;5073466;28;20178;-69
2021/05/14 07:47:14;;;;;;;4.43;3.27;;;18.40;99.90;;;;;;5072542;28;20195;-67
2021/05/14 07:49:40;;;;;;;4.23;3.83;;;18.60;97.90;;;;;;5072903;28;20238;-67
2021/05/14 07:52:06;;;;;;;5.23;3.43;;;19.00;97.20;;;;;;5073183;28;20164;-67
2021/05/14 07:54:31;;;;;;;4.20;3.80;;;19.40;96.00;;;;;;5072905;28;20228;-67
2021/05/14 07:56:57;;;;;;;8.33;5.10;;;19.80;94.20;;;;;;5073214;28;20177;-67
2021/05/14 07:59:22;;;;;;;4.30;3.90;;;20.10;92.10;;;;;;5073163;28;20272;-67
2021/05/14 08:01:48;;;;;;;3.97;3.60;;;20.40;91.20;;;;;;5073156;28;20156;-67
2021/05/14 08:04:14;;;;;;;4.43;4.00;;;20.60;89.70;;;;;;5072052;28;20176;-67
2021/05/14 08:06:39;;;;;;;5.20;3.97;;;20.70;87.10;;;;;;5072978;28;20163;-67
2021/05/14 08:09:07;;;;;;;5.40;4.40;;;21.00;85.40;;;;;;5073040;28;20242;-67
2021/05/14 08:11:32;;;;;;;5.80;3.07;;;21.60;82.10;;;;;;5073163;28;20159;-67
2021/05/14 08:13:58;;;;;;;3.60;2.30;;;22.20;71.60;;;;;;5072825;28;20972;-67
2021/05/14 08:16:23;;;;;;;5.00;3.10;;;22.80;62.50;;;;;;5073163;28;20167;-67
2021/05/14 08:18:51;;;;;;;4.57;3.23;;;23.60;58.90;;;;;;5072798;28;20174;-68
2021/05/14 08:21:18;;;;;;;2.83;2.33;;;24.50;57.10;;;;;;5058050;28;20195;-68
2021/05/14 08:23:44;;;;;;;3.20;2.27;;;25.50;53.00;;;;;;5052950;28;20390;-68
2021/05/14 08:26:10;;;;;;;3.87;2.37;;;26.40;52.20;;;;;;5053081;28;20452;-68
2021/05/14 08:28:36;;;;;;;4.00;2.50;;;27.30;48.20;;;;;;5052890;28;20629;-68
2021/05/14 08:31:02;;;;;;;2.03;1.70;;;28.20;44.00;;;;;;5052739;28;20469;-69
2021/05/14 08:33:28;;;;;;;2.10;1.80;;;29.00;40.60;;;;;;5052580;28;20198;-69
2021/05/14 08:35:53;;;;;;;2.60;2.30;;;29.70;39.20;;;;;;5052894;28;20164;-69
2021/05/14 08:38:19;;;;;;;3.00;2.00;;;30.10;37.80;;;;;;5053438;28;20191;-69
2021/05/14 08:40:44;;;;;;;4.17;2.83;;;30.50;37.00;;;;;;5053085;28;20164;-69
2021/05/14 08:43:11;;;;;;;2.93;2.20;;;30.90;35.50;;;;;;5052721;28;20157;-69
2021/05/14 08:45:38;;;;;;;2.70;1.63;;;31.50;34.20;;;;;;5052733;28;20697;-69
2021/05/14 08:48:11;;;;;;;2.07;1.67;;;31.80;31.70;;;;;;5052813;28;20393;-69
2021/05/14 08:50:38;;;;;;;2.27;1.60;;;31.80;31.00;;;;;;5052616;28;20383;-69
2021/05/14 08:53:03;;;;;;;1.93;1.70;;;31.90;30.80;;;;;;5052502;28;20391;-69
2021/05/14 08:55:29;;;;;;;3.40;2.30;;;32.30;31.60;;;;;;5053409;28;20822;-69
2021/05/14 08:57:55;;;;;;;2.73;1.70;;;32.30;31.40;;;;;;5052545;28;20231;-69
2021/05/14 09:00:21;;;;;;;3.80;2.57;;;32.30;31.00;;;;;;5053303;28;20441;-69
2021/05/14 09:02:47;;;;;;;3.97;2.43;;;31.90;32.70;;;;;;5056187;28;20293;-69
2021/05/14 09:05:33;;;;;;;2.50;2.17;;;31.90;32.80;;;;;;5055997;28;20196;-69
2021/05/14 09:08:01;;;;;;;5.57;2.47;;;32.60;31.50;;;;;;5055474;28;20394;-69
2021/05/14 09:10:28;;;;;;;2.37;2.13;;;33.40;30.30;;;;;;5056756;28;20774;-69
2021/05/14 09:12:54;;;;;;;2.93;2.17;;;33.80;29.30;;;;;;5075437;28;20432;-69
2021/05/14 09:15:22;;;;;;;2.10;1.87;;;33.10;30.40;;;;;;5075981;28;20396;-69
2021/05/14 09:33:44;;;;;;;3.30;2.13;;;31.30;32.10;;;;;;5090530;28;20583;-68
2021/05/14 09:36:13;;;;;;;3.60;1.93;;;28.10;37.60;;;;;;5090838;28;20389;-68
2021/05/14 09:38:42;;;;;;;2.80;2.40;;;27.50;38.70;;;;;;5090674;28;20786;-68
2021/05/14 09:41:22;;;;;;;2.27;2.07;;;27.00;38.40;;;;;;5090474;28;20381;-68
2021/05/14 09:44:08;;;;;;;3.60;2.17;;;26.30;39.80;;;;;;5090212;28;20788;-68
2021/05/14 09:49:14;;;;;;;5.80;2.30;;;25.60;40.90;;;;;;5090610;28;20560;-70
2021/05/14 09:54:29;;;;;;;4.47;2.60;;;25.00;41.20;;;;;;5111715;27;20566;-69
2021/05/14 09:57:33;;;;;;;4.00;2.20;;;24.50;42.20;;;;;;5110885;28;20428;-69
2021/05/14 10:00:04;;;;;;;3.80;2.10;;;24.20;42.70;;;;;;5109927;28;20419;-68
2021/05/14 10:02:34;;;;;;;2.27;2.10;;;24.00;44.10;;;;;;5102087;28;20974;-68
2021/05/14 10:05:02;;;;;;;2.40;2.13;;;23.80;43.90;;;;;;5090789;28;20385;-68
2021/05/14 10:07:29;;;;;;;2.10;1.83;;;23.70;44.40;;;;;;5090956;28;20497;-68
2021/05/14 10:09:58;;;;;;;3.47;2.47;;;23.60;44.50;;;;;;5090616;28;20812;-68
2021/05/14 10:12:25;;;;;;;3.77;2.50;;;23.40;44.50;;;;;;5090174;28;20466;-68
2021/05/14 10:14:51;;;;;;;3.30;2.30;;;23.20;44.30;;;;;;5090059;28;20500;-68
2021/05/14 10:17:17;;;;;;;5.00;2.00;;;23.20;45.40;;;;;;5090254;28;20431;-68
2021/05/14 10:19:44;;;;;;;2.53;1.93;;;23.20;45.20;;;;;;5100271;28;20403;-68
2021/05/14 10:22:10;;;;;;;1.33;1.23;;;23.20;44.60;;;;;;5110872;28;20388;-68
2021/05/14 10:29:56;;;;;;;2.23;1.63;;;23.40;43.50;;;;;;5110962;27;21090;-69
2021/05/14 10:35:27;;;;;;;1.63;1.40;;;23.00;43.70;;;;;;5132803;27;20554;-69
2021/05/14 10:43:11;;;;;;;2.47;1.90;;;22.80;44.90;;;;;;5131450;27;20504;-69
2021/05/14 10:45:40;;;;;;;2.63;2.27;;;22.50;46.20;;;;;;5131461;28;20388;-69
2021/05/14 10:48:17;;;;;;;2.87;1.90;;;22.40;45.60;;;;;;5132933;28;20755;-69
2021/05/14 10:51:00;;;;;;;2.50;1.67;;;22.30;45.80;;;;;;5132116;28;20387;-69
2021/05/14 10:59:07;;;;;;;2.40;1.70;;;22.00;46.20;;;;;;5110881;27;20525;-69
2021/05/14 11:06:49;;;;;;;2.60;2.00;;;22.00;46.10;;;;;;5090675;27;20571;-68
2021/05/14 11:09:17;;;;;;;3.20;1.77;;;21.80;47.00;;;;;;5090491;28;20438;-68
2021/05/14 11:12:05;;;;;;;3.23;1.53;;;21.60;46.70;;;;;;5071707;28;20745;-68
2021/05/14 11:14:51;;;;;;;8.13;1.90;;;21.50;47.80;;;;;;5069371;28;20398;-68
2021/05/14 11:17:19;;;;;;;1.63;1.33;;;21.50;47.80;;;;;;5069206;28;20386;-68
2021/05/14 11:27:36;;;;;;;6.20;2.20;;;21.50;46.80;;;;;;5172779;27;20510;-69
2021/05/14 11:30:05;;;;;;;2.53;1.80;;;21.40;46.00;;;;;;5172941;27;20377;-69
2021/05/14 11:35:11;;;;;;;3.13;2.20;;;21.30;46.60;;;;;;5070749;28;20508;-68
2021/05/14 11:37:39;;;;;;;4.30;2.10;;;21.00;46.00;;;;;;5070326;28;20465;-68
2021/05/14 11:40:10;;;;;;;2.70;2.00;;;21.10;47.10;;;;;;5070133;28;20448;-68
2021/05/14 11:42:43;;;;;;;4.20;2.00;;;21.00;47.10;;;;;;5070296;28;20756;-68
2021/05/14 11:45:11;;;;;;;2.63;1.57;;;20.90;47.30;;;;;;5056272;28;20425;-68
2021/05/14 11:47:42;;;;;;;3.73;2.23;;;20.60;46.70;;;;;;5050972;28;20383;-68
2021/05/14 11:50:08;;;;;;;2.90;1.90;;;20.20;47.40;;;;;;5050217;28;20415;-68
2021/05/14 11:52:42;;;;;;;3.83;2.10;;;19.90;48.40;;;;;;5049921;28;20900;-68
2021/05/14 11:55:11;;;;;;;3.80;2.70;;;20.00;49.90;;;;;;5050117;28;20406;-68
2021/05/14 11:57:38;;;;;;;5.77;2.37;;;20.00;50.20;;;;;;5050167;28;20918;-68
2021/05/14 12:00:07;;;;;;;3.57;2.67;;;20.10;50.70;;;;;;5050016;28;20915;-68
2021/05/14 12:02:39;;;;;;;4.43;3.00;;;20.10;50.90;;;;;;5051369;28;20497;-68
2021/05/14 12:05:07;;;;;;;3.93;2.30;;;20.10;50.50;;;;;;5049836;28;20425;-69
2021/05/14 12:07:33;;;;;;;3.13;1.70;;;20.20;51.00;;;;;;5049745;28;20391;-68
2021/05/14 12:10:00;;;;;;;3.87;2.30;;;20.30;49.60;;;;;;5054449;28;20948;-68
2021/05/14 12:12:26;;;;;;;3.60;2.70;;;20.30;49.90;;;;;;5069970;28;20231;-68
2021/05/14 12:15:07;;;;;;;5.80;2.30;;;20.30;49.40;;;;;;5069644;28;20532;-68
2021/05/14 12:17:36;;;;;;;3.00;2.40;;;20.30;49.50;;;;;;5069486;28;20155;-68
2021/05/14 12:23:02;;;;;;;2.63;2.10;;;20.10;49.70;;;;;;5131394;27;20564;-67
2021/05/14 12:25:30;;;;;;;2.53;2.33;;;20.10;50.40;;;;;;5131632;28;20436;-67
2021/05/14 12:27:56;;;;;;;4.73;2.40;;;19.90;50.90;;;;;;5131313;28;20426;-68
2021/05/14 12:30:37;;;;;;;2.97;2.30;;;19.70;51.00;;;;;;5131927;28;20749;-68
2021/05/14 12:33:03;;;;;;;2.87;2.47;;;19.60;51.70;;;;;;5131485;28;20387;-67
2021/05/14 12:35:28;;;;;;;3.20;2.53;;;19.40;51.80;;;;;;5122621;28;20415;-67
2021/05/14 12:37:55;;;;;;;3.93;2.47;;;19.20;51.60;;;;;;5110721;28;20255;-67
2021/05/14 12:40:29;;;;;;;3.50;2.23;;;19.10;52.10;;;;;;5110737;28;20163;-67
2021/05/14 12:43:11;;;;;;;2.93;2.50;;;19.00;52.40;;;;;;5110552;28;20472;-67
2021/05/14 12:45:39;;;;;;;2.70;2.07;;;18.90;52.60;;;;;;5111337;28;20386;-68
2021/05/14 12:48:06;;;;;;;3.20;2.73;;;18.70;53.20;;;;;;5110395;28;20385;-67
2021/05/14 12:50:32;;;;;;;3.03;2.30;;;18.60;53.40;;;;;;5110364;28;20380;-68
2021/05/14 12:52:58;;;;;;;2.40;2.20;;;18.50;55.20;;;;;;5111278;28;20411;-67
2021/05/14 12:55:24;;;;;;;2.90;1.87;;;18.40;57.30;;;;;;5110315;28;20744;-67
2021/05/14 13:00:32;;;;;;;4.37;1.80;;;18.20;58.80;;;;;;5071138;28;20578;-69
2021/05/14 13:03:06;;;;;;;2.63;1.80;;;18.00;60.10;;;;;;5070557;28;20417;-69
2021/05/14 13:05:43;;;;;;;3.13;1.73;;;17.80;61.80;;;;;;5070261;28;20389;-69
2021/05/14 13:10:57;;;;;;;3.27;1.70;;;17.60;64.00;;;;;;5091448;27;20560;-68
2021/05/14 13:13:26;;;;;;;3.13;1.90;;;17.40;65.40;;;;;;5090668;28;20385;-68
2021/05/14 13:15:54;;;;;;;6.23;2.03;;;17.30;67.00;;;;;;5090815;28;20408;-68
2021/05/14 13:18:28;;;;;;;1.93;1.80;;;17.20;68.60;;;;;;5090433;28;20377;-68
2021/05/14 13:20:57;;;;;;;2.93;1.70;;;17.20;70.10;;;;;;5090532;28;20408;-68
2021/05/14 13:23:23;;;;;;;2.80;1.93;;;17.20;71.40;;;;;;5090399;28;20472;-68
2021/05/14 13:25:50;;;;;;;4.50;2.07;;;17.20;73.20;;;;;;5090817;28;20501;-68
2021/05/14 13:28:16;;;;;;;3.97;2.00;;;17.10;72.20;;;;;;5090676;28;20150;-68
2021/05/14 13:30:42;;;;;;;5.30;1.57;;;17.10;71.80;;;;;;5090161;28;20884;-68
2021/05/14 13:33:08;;;;;;;1.87;1.33;;;17.10;70.20;;;;;;5090241;28;20417;-68
2021/05/14 13:35:34;;;;;;;4.27;2.00;;;17.20;70.70;;;;;;5090049;28;20433;-68
2021/05/14 13:38:00;;;;;;;1.80;1.30;;;17.20;69.80;;;;;;5090082;28;20159;-68
2021/05/14 13:40:25;;;;;;;2.13;1.37;;;17.30;70.20;;;;;;5089972;28;20394;-68
2021/05/14 13:42:51;;;;;;;3.07;1.80;;;17.50;69.40;;;;;;5091233;28;20213;-68
2021/05/14 13:45:17;;;;;;;2.53;1.67;;;17.60;67.80;;;;;;5090314;28;20163;-68
2021/05/14 13:47:42;;;;;;;7.57;2.43;;;17.80;67.30;;;;;;5089874;28;20505;-68